sensor_id;sensor_type;location;lat;lon;timestamp;temperature;humidity
35111;DHT22;21290;50.158;8.658;2023-01-23T00:01:08;2.30;99.90
35111;DHT22;21290;50.158;8.658;2023-01-23T00:03:35;2.20;99.90
35111;DHT22;21290;50.158;8.658;2023-01-23T00:06:06;2.30;99.90
35111;DHT22;21290;50.158;8.658;2023-01-23T00:08:33;2.20;99.90
35111;DHT22;21290;50.158;8.658;2023-01-23T00:11:07;2.20;99.90
35111;DHT22;21290;50.158;8.658;2023-01-23T00:13:34;2.20;99.90
35111;DHT22;21290;50.158;8.658;2023-01-23T00:16:04;2.20;99.90
35111;DHT22;21290;50.158;8.658;2023-01-23T00:18:31;2.20;99.90
35111;DHT22;21290;50.158;8.658;2023-01-23T00:20:57;2.20;99.90
35111;DHT22;21290;50.158;8.658;2023-01-23T00:23:24;2.20;99.90
35111;DHT22;21290;50.158;8.658;2023-01-23T00:25:51;2.20;99.90
35111;DHT22;21290;50.158;8.658;2023-01-23T00:28:17;2.20;99.90
35111;DHT22;21290;50.158;8.658;2023-01-23T00:30:43;2.20;99.90
35111;DHT22;21290;50.158;8.658;2023-01-23T00:33:10;2.10;99.90
35111;DHT22;21290;50.158;8.658;2023-01-23T00:35:37;2.10;99.90
35111;DHT22;21290;50.158;8.658;2023-01-23T00:38:03;2.10;99.90
35111;DHT22;21290;50.158;8.658;2023-01-23T00:40:30;2.10;99.90
35111;DHT22;21290;50.158;8.658;2023-01-23T00:42:56;2.20;99.90
35111;DHT22;21290;50.158;8.658;2023-01-23T00:45:23;2.20;99.90
35111;DHT22;21290;50.158;8.658;2023-01-23T00:47:50;2.20;99.90
35111;DHT22;21290;50.158;8.658;2023-01-23T00:50:16;2.20;99.90
35111;DHT22;21290;50.158;8.658;2023-01-23T00:52:43;2.20;99.90
35111;DHT22;21290;50.158;8.658;2023-01-23T00:55:10;2.20;99.90
35111;DHT22;21290;50.158;8.658;2023-01-23T00:57:36;2.20;99.90
35111;DHT22;21290;50.158;8.658;2023-01-23T01:00:03;2.20;99.90
35111;DHT22;21290;50.158;8.658;2023-01-23T01:02:30;2.20;99.90
35111;DHT22;21290;50.158;8.658;2023-01-23T01:04:56;2.20;99.90
35111;DHT22;21290;50.158;8.658;2023-01-23T01:07:23;2.10;99.90
35111;DHT22;21290;50.158;8.658;2023-01-23T01:09:49;2.10;99.90
35111;DHT22;21290;50.158;8.658;2023-01-23T01:12:16;2.00;99.90
35111;DHT22;21290;50.158;8.658;2023-01-23T01:14:44;1.90;99.90
35111;DHT22;21290;50.158;8.658;2023-01-23T01:17:11;1.90;99.90
35111;DHT22;21290;50.158;8.658;2023-01-23T01:19:37;1.80;99.90
35111;DHT22;21290;50.158;8.658;2023-01-23T01:22:04;1.70;99.90
35111;DHT22;21290;50.158;8.658;2023-01-23T01:24:30;1.60;99.90
35111;DHT22;21290;50.158;8.658;2023-01-23T01:26:57;1.50;99.90
35111;DHT22;21290;50.158;8.658;2023-01-23T01:29:23;1.40;99.90
35111;DHT22;21290;50.158;8.658;2023-01-23T01:31:50;1.30;99.90
35111;DHT22;21290;50.158;8.658;2023-01-23T01:34:17;1.20;99.90
35111;DHT22;21290;50.158;8.658;2023-01-23T01:36:43;1.10;99.90
35111;DHT22;21290;50.158;8.658;2023-01-23T01:39:10;1.10;99.90
35111;DHT22;21290;50.158;8.658;2023-01-23T01:41:36;1.00;99.90
35111;DHT22;21290;50.158;8.658;2023-01-23T01:44:03;0.90;99.90
35111;DHT22;21290;50.158;8.658;2023-01-23T01:46:29;0.90;99.90
35111;DHT22;21290;50.158;8.658;2023-01-23T01:54:17;0.80;99.90
35111;DHT22;21290;50.158;8.658;2023-01-23T01:56:56;0.80;99.90
35111;DHT22;21290;50.158;8.658;2023-01-23T01:59:25;0.80;99.90
35111;DHT22;21290;50.158;8.658;2023-01-23T02:01:55;0.80;99.90
35111;DHT22;21290;50.158;8.658;2023-01-23T02:04:23;0.70;99.90
35111;DHT22;21290;50.158;8.658;2023-01-23T02:06:50;0.80;99.90
35111;DHT22;21290;50.158;8.658;2023-01-23T02:09:22;0.80;99.90
35111;DHT22;21290;50.158;8.658;2023-01-23T02:11:50;0.80;99.90
35111;DHT22;21290;50.158;8.658;2023-01-23T02:14:16;0.70;99.90
35111;DHT22;21290;50.158;8.658;2023-01-23T02:16:43;0.60;99.90
35111;DHT22;21290;50.158;8.658;2023-01-23T02:19:16;0.60;99.90
35111;DHT22;21290;50.158;8.658;2023-01-23T02:21:45;0.60;99.90
35111;DHT22;21290;50.158;8.658;2023-01-23T02:24:16;0.60;99.90
35111;DHT22;21290;50.158;8.658;2023-01-23T02:26:43;0.70;99.90
35111;DHT22;21290;50.158;8.658;2023-01-23T02:29:10;0.70;99.90
35111;DHT22;21290;50.158;8.658;2023-01-23T02:31:37;0.80;99.90
35111;DHT22;21290;50.158;8.658;2023-01-23T02:34:04;0.80;99.90
35111;DHT22;21290;50.158;8.658;2023-01-23T02:36:32;0.90;99.90
35111;DHT22;21290;50.158;8.658;2023-01-23T02:39:00;0.90;99.90
35111;DHT22;21290;50.158;8.658;2023-01-23T02:41:29;0.90;99.90
35111;DHT22;21290;50.158;8.658;2023-01-23T02:43:57;0.90;99.90
35111;DHT22;21290;50.158;8.658;2023-01-23T02:46:24;0.90;99.90
35111;DHT22;21290;50.158;8.658;2023-01-23T02:48:51;0.80;99.90
35111;DHT22;21290;50.158;8.658;2023-01-23T02:51:18;0.70;99.90
35111;DHT22;21290;50.158;8.658;2023-01-23T02:53:46;0.70;99.90
35111;DHT22;21290;50.158;8.658;2023-01-23T02:56:13;0.70;99.90
35111;DHT22;21290;50.158;8.658;2023-01-23T02:58:40;0.70;99.90
35111;DHT22;21290;50.158;8.658;2023-01-23T03:01:25;0.70;99.90
35111;DHT22;21290;50.158;8.658;2023-01-23T03:03:52;0.60;99.90
35111;DHT22;21290;50.158;8.658;2023-01-23T03:06:22;0.70;99.90
35111;DHT22;21290;50.158;8.658;2023-01-23T03:08:49;0.70;99.90
35111;DHT22;21290;50.158;8.658;2023-01-23T03:11:16;0.90;99.90
35111;DHT22;21290;50.158;8.658;2023-01-23T03:13:44;0.90;99.90
35111;DHT22;21290;50.158;8.658;2023-01-23T03:16:11;1.00;99.90
35111;DHT22;21290;50.158;8.658;2023-01-23T03:18:37;1.00;99.90
35111;DHT22;21290;50.158;8.658;2023-01-23T03:21:19;1.10;99.90
35111;DHT22;21290;50.158;8.658;2023-01-23T03:23:46;1.20;99.90
35111;DHT22;21290;50.158;8.658;2023-01-23T03:26:13;1.20;99.90
35111;DHT22;21290;50.158;8.658;2023-01-23T03:28:40;1.20;99.90
35111;DHT22;21290;50.158;8.658;2023-01-23T03:31:25;1.30;99.90
35111;DHT22;21290;50.158;8.658;2023-01-23T03:33:52;1.30;99.90
35111;DHT22;21290;50.158;8.658;2023-01-23T03:36:19;1.30;99.90
35111;DHT22;21290;50.158;8.658;2023-01-23T03:38:45;1.40;99.90
35111;DHT22;21290;50.158;8.658;2023-01-23T03:41:31;1.30;99.90
35111;DHT22;21290;50.158;8.658;2023-01-23T03:43:57;1.40;99.90
35111;DHT22;21290;50.158;8.658;2023-01-23T03:46:24;1.40;99.90
35111;DHT22;21290;50.158;8.658;2023-01-23T03:48:50;1.40;99.90
35111;DHT22;21290;50.158;8.658;2023-01-23T03:51:17;1.50;99.90
35111;DHT22;21290;50.158;8.658;2023-01-23T03:53:43;1.50;99.90
35111;DHT22;21290;50.158;8.658;2023-01-23T03:56:10;1.60;99.90
35111;DHT22;21290;50.158;8.658;2023-01-23T03:58:36;1.60;99.90
35111;DHT22;21290;50.158;8.658;2023-01-23T04:01:06;1.70;99.90
35111;DHT22;21290;50.158;8.658;2023-01-23T04:03:32;1.70;99.90
35111;DHT22;21290;50.158;8.658;2023-01-23T04:05:59;1.70;99.90
35111;DHT22;21290;50.158;8.658;2023-01-23T04:08:26;1.70;99.90
35111;DHT22;21290;50.158;8.658;2023-01-23T04:11:07;1.70;99.90
35111;DHT22;21290;50.158;8.658;2023-01-23T04:13:34;1.70;99.90
35111;DHT22;21290;50.158;8.658;2023-01-23T04:16:00;1.80;99.90
35111;DHT22;21290;50.158;8.658;2023-01-23T04:18:27;1.80;99.90
35111;DHT22;21290;50.158;8.658;2023-01-23T04:20:54;1.80;99.90
35111;DHT22;21290;50.158;8.658;2023-01-23T04:23:20;1.80;99.90
35111;DHT22;21290;50.158;8.658;2023-01-23T04:25:47;1.80;99.90
35111;DHT22;21290;50.158;8.658;2023-01-23T04:28:14;1.80;99.90
35111;DHT22;21290;50.158;8.658;2023-01-23T04:30:40;1.80;99.90
35111;DHT22;21290;50.158;8.658;2023-01-23T04:33:07;1.90;99.90
35111;DHT22;21290;50.158;8.658;2023-01-23T04:35:34;1.90;99.90
35111;DHT22;21290;50.158;8.658;2023-01-23T04:38:00;1.90;99.90
35111;DHT22;21290;50.158;8.658;2023-01-23T04:40:27;1.90;99.90
35111;DHT22;21290;50.158;8.658;2023-01-23T04:42:54;1.90;99.90
35111;DHT22;21290;50.158;8.658;2023-01-23T04:45:20;1.90;99.90
35111;DHT22;21290;50.158;8.658;2023-01-23T04:47:47;2.00;99.90
35111;DHT22;21290;50.158;8.658;2023-01-23T04:50:14;2.00;99.90
35111;DHT22;21290;50.158;8.658;2023-01-23T04:52:41;2.00;99.90
35111;DHT22;21290;50.158;8.658;2023-01-23T04:55:07;2.00;99.90
35111;DHT22;21290;50.158;8.658;2023-01-23T04:57:34;2.10;99.90
35111;DHT22;21290;50.158;8.658;2023-01-23T05:00:00;2.10;99.90
35111;DHT22;21290;50.158;8.658;2023-01-23T05:02:27;2.10;99.90
35111;DHT22;21290;50.158;8.658;2023-01-23T05:04:54;2.10;99.90
35111;DHT22;21290;50.158;8.658;2023-01-23T05:07:20;2.00;99.90
35111;DHT22;21290;50.158;8.658;2023-01-23T05:09:47;2.10;99.90
35111;DHT22;21290;50.158;8.658;2023-01-23T05:12:13;2.10;99.90
35111;DHT22;21290;50.158;8.658;2023-01-23T05:14:40;2.10;99.90
35111;DHT22;21290;50.158;8.658;2023-01-23T05:17:07;2.10;99.90
35111;DHT22;21290;50.158;8.658;2023-01-23T05:19:33;2.10;99.90
35111;DHT22;21290;50.158;8.658;2023-01-23T05:22:00;2.10;99.90
35111;DHT22;21290;50.158;8.658;2023-01-23T05:24:27;2.10;99.90
35111;DHT22;21290;50.158;8.658;2023-01-23T05:26:53;2.10;99.90
35111;DHT22;21290;50.158;8.658;2023-01-23T05:29:20;2.10;99.90
35111;DHT22;21290;50.158;8.658;2023-01-23T05:31:46;2.10;99.90
35111;DHT22;21290;50.158;8.658;2023-01-23T05:34:13;2.20;99.90
35111;DHT22;21290;50.158;8.658;2023-01-23T05:36:39;2.10;99.90
35111;DHT22;21290;50.158;8.658;2023-01-23T05:39:06;2.10;99.90
35111;DHT22;21290;50.158;8.658;2023-01-23T05:41:32;2.10;99.90
35111;DHT22;21290;50.158;8.658;2023-01-23T05:43:59;2.10;99.90
35111;DHT22;21290;50.158;8.658;2023-01-23T05:46:26;2.20;99.90
35111;DHT22;21290;50.158;8.658;2023-01-23T05:48:52;2.20;99.90
35111;DHT22;21290;50.158;8.658;2023-01-23T05:51:19;2.20;99.90
35111;DHT22;21290;50.158;8.658;2023-01-23T05:53:46;2.20;99.90
35111;DHT22;21290;50.158;8.658;2023-01-23T05:56:13;2.20;99.90
35111;DHT22;21290;50.158;8.658;2023-01-23T05:58:39;2.20;99.90
35111;DHT22;21290;50.158;8.658;2023-01-23T06:01:06;2.30;99.90
35111;DHT22;21290;50.158;8.658;2023-01-23T06:03:32;2.30;99.90
35111;DHT22;21290;50.158;8.658;2023-01-23T06:06:00;2.30;99.90
35111;DHT22;21290;50.158;8.658;2023-01-23T06:08:27;2.30;99.90
35111;DHT22;21290;50.158;8.658;2023-01-23T06:10:56;2.40;99.90
35111;DHT22;21290;50.158;8.658;2023-01-23T06:13:24;2.40;99.90
35111;DHT22;21290;50.158;8.658;2023-01-23T06:15:51;2.40;99.90
35111;DHT22;21290;50.158;8.658;2023-01-23T06:18:18;2.50;99.90
35111;DHT22;21290;50.158;8.658;2023-01-23T06:20:44;2.40;99.90
35111;DHT22;21290;50.158;8.658;2023-01-23T06:23:11;2.40;99.90
35111;DHT22;21290;50.158;8.658;2023-01-23T06:25:38;2.30;99.90
35111;DHT22;21290;50.158;8.658;2023-01-23T06:28:04;2.20;99.90
35111;DHT22;21290;50.158;8.658;2023-01-23T06:30:31;2.20;99.90
35111;DHT22;21290;50.158;8.658;2023-01-23T06:32:57;2.20;99.90
35111;DHT22;21290;50.158;8.658;2023-01-23T06:35:24;2.20;99.90
35111;DHT22;21290;50.158;8.658;2023-01-23T06:37:51;2.20;99.90
35111;DHT22;21290;50.158;8.658;2023-01-23T06:40:17;2.10;99.90
35111;DHT22;21290;50.158;8.658;2023-01-23T06:42:44;2.10;99.90
35111;DHT22;21290;50.158;8.658;2023-01-23T06:45:11;2.20;99.90
35111;DHT22;21290;50.158;8.658;2023-01-23T06:47:37;2.20;99.90
35111;DHT22;21290;50.158;8.658;2023-01-23T06:50:04;2.20;99.90
35111;DHT22;21290;50.158;8.658;2023-01-23T06:52:31;2.20;99.90
35111;DHT22;21290;50.158;8.658;2023-01-23T06:54:57;2.20;99.90
35111;DHT22;21290;50.158;8.658;2023-01-23T06:57:24;2.20;99.90
35111;DHT22;21290;50.158;8.658;2023-01-23T06:59:50;2.20;99.90
35111;DHT22;21290;50.158;8.658;2023-01-23T07:02:17;2.20;99.90
35111;DHT22;21290;50.158;8.658;2023-01-23T07:04:43;2.10;99.90
35111;DHT22;21290;50.158;8.658;2023-01-23T07:07:10;2.10;99.90
35111;DHT22;21290;50.158;8.658;2023-01-23T07:09:36;2.10;99.90
35111;DHT22;21290;50.158;8.658;2023-01-23T07:12:03;2.10;99.90
35111;DHT22;21290;50.158;8.658;2023-01-23T07:14:30;2.10;99.90
35111;DHT22;21290;50.158;8.658;2023-01-23T07:16:57;2.00;99.90
35111;DHT22;21290;50.158;8.658;2023-01-23T07:19:24;2.00;99.90
35111;DHT22;21290;50.158;8.658;2023-01-23T07:21:50;1.90;99.90
35111;DHT22;21290;50.158;8.658;2023-01-23T07:24:17;1.90;99.90
35111;DHT22;21290;50.158;8.658;2023-01-23T07:26:43;1.90;99.90
35111;DHT22;21290;50.158;8.658;2023-01-23T07:29:10;1.80;99.90
35111;DHT22;21290;50.158;8.658;2023-01-23T07:31:37;1.80;99.90
35111;DHT22;21290;50.158;8.658;2023-01-23T07:34:03;1.80;99.90
35111;DHT22;21290;50.158;8.658;2023-01-23T07:36:30;1.70;99.90
35111;DHT22;21290;50.158;8.658;2023-01-23T07:38:56;1.70;99.90
35111;DHT22;21290;50.158;8.658;2023-01-23T07:41:24;1.70;99.90
35111;DHT22;21290;50.158;8.658;2023-01-23T07:43:51;1.70;99.90
35111;DHT22;21290;50.158;8.658;2023-01-23T07:46:17;1.70;99.90
35111;DHT22;21290;50.158;8.658;2023-01-23T07:48:44;1.70;99.90
35111;DHT22;21290;50.158;8.658;2023-01-23T07:51:10;1.80;99.90
35111;DHT22;21290;50.158;8.658;2023-01-23T07:53:37;1.80;99.90
35111;DHT22;21290;50.158;8.658;2023-01-23T07:56:04;1.90;99.90
35111;DHT22;21290;50.158;8.658;2023-01-23T07:58:31;2.00;99.90
35111;DHT22;21290;50.158;8.658;2023-01-23T08:00:58;2.00;99.90
35111;DHT22;21290;50.158;8.658;2023-01-23T08:03:25;2.10;99.90
35111;DHT22;21290;50.158;8.658;2023-01-23T08:05:54;2.20;99.90
35111;DHT22;21290;50.158;8.658;2023-01-23T08:08:21;2.20;99.90
35111;DHT22;21290;50.158;8.658;2023-01-23T08:10:47;2.30;99.90
35111;DHT22;21290;50.158;8.658;2023-01-23T08:13:14;2.40;99.90
35111;DHT22;21290;50.158;8.658;2023-01-23T08:15:40;2.40;99.90
35111;DHT22;21290;50.158;8.658;2023-01-23T08:18:07;2.50;99.90
35111;DHT22;21290;50.158;8.658;2023-01-23T08:20:34;2.50;99.90
35111;DHT22;21290;50.158;8.658;2023-01-23T08:23:00;2.60;99.90
35111;DHT22;21290;50.158;8.658;2023-01-23T08:25:27;2.70;99.90
35111;DHT22;21290;50.158;8.658;2023-01-23T08:27:54;2.70;99.90
35111;DHT22;21290;50.158;8.658;2023-01-23T08:30:21;2.80;99.90
35111;DHT22;21290;50.158;8.658;2023-01-23T08:32:48;2.90;99.90
35111;DHT22;21290;50.158;8.658;2023-01-23T08:35:14;3.00;99.90
35111;DHT22;21290;50.158;8.658;2023-01-23T08:37:41;3.00;99.90
35111;DHT22;21290;50.158;8.658;2023-01-23T08:40:08;3.10;99.90
35111;DHT22;21290;50.158;8.658;2023-01-23T08:42:35;3.20;99.90
35111;DHT22;21290;50.158;8.658;2023-01-23T08:45:01;3.20;99.90
35111;DHT22;21290;50.158;8.658;2023-01-23T08:47:28;3.20;99.90
35111;DHT22;21290;50.158;8.658;2023-01-23T08:49:55;3.20;99.90
35111;DHT22;21290;50.158;8.658;2023-01-23T08:52:22;3.10;99.90
35111;DHT22;21290;50.158;8.658;2023-01-23T08:54:49;3.10;99.90
35111;DHT22;21290;50.158;8.658;2023-01-23T08:57:15;3.20;99.90
35111;DHT22;21290;50.158;8.658;2023-01-23T08:59:42;3.30;99.90
35111;DHT22;21290;50.158;8.658;2023-01-23T09:02:12;3.30;99.90
35111;DHT22;21290;50.158;8.658;2023-01-23T09:04:39;3.30;99.90
35111;DHT22;21290;50.158;8.658;2023-01-23T09:07:06;3.40;99.90
35111;DHT22;21290;50.158;8.658;2023-01-23T09:09:32;3.40;99.90
35111;DHT22;21290;50.158;8.658;2023-01-23T09:11:59;3.40;99.90
35111;DHT22;21290;50.158;8.658;2023-01-23T09:14:26;3.40;99.90
35111;DHT22;21290;50.158;8.658;2023-01-23T09:16:52;3.40;99.90
35111;DHT22;21290;50.158;8.658;2023-01-23T09:19:19;3.30;99.90
35111;DHT22;21290;50.158;8.658;2023-01-23T09:21:46;3.30;99.90
35111;DHT22;21290;50.158;8.658;2023-01-23T09:24:12;3.30;99.90
35111;DHT22;21290;50.158;8.658;2023-01-23T09:26:39;3.40;99.90
35111;DHT22;21290;50.158;8.658;2023-01-23T09:29:05;3.50;99.90
35111;DHT22;21290;50.158;8.658;2023-01-23T09:31:32;3.60;99.90
35111;DHT22;21290;50.158;8.658;2023-01-23T09:33:58;3.60;99.90
35111;DHT22;21290;50.158;8.658;2023-01-23T09:36:26;3.70;99.90
35111;DHT22;21290;50.158;8.658;2023-01-23T09:39:08;3.80;99.90
35111;DHT22;21290;50.158;8.658;2023-01-23T09:41:34;3.80;99.90
35111;DHT22;21290;50.158;8.658;2023-01-23T09:44:02;4.00;99.90
35111;DHT22;21290;50.158;8.658;2023-01-23T09:51:55;4.40;99.90
35111;DHT22;21290;50.158;8.658;2023-01-23T09:54:38;4.50;99.90
35111;DHT22;21290;50.158;8.658;2023-01-23T09:57:14;4.50;99.90
35111;DHT22;21290;50.158;8.658;2023-01-23T09:59:42;4.60;99.90
35111;DHT22;21290;50.158;8.658;2023-01-23T10:02:25;4.60;99.90
35111;DHT22;21290;50.158;8.658;2023-01-23T10:04:52;4.60;99.90
35111;DHT22;21290;50.158;8.658;2023-01-23T10:10:02;4.60;99.90
35111;DHT22;21290;50.158;8.658;2023-01-23T10:12:43;4.70;99.90
35111;DHT22;21290;50.158;8.658;2023-01-23T10:17:52;4.80;99.90
35111;DHT22;21290;50.158;8.658;2023-01-23T10:23:16;4.90;99.90
35111;DHT22;21290;50.158;8.658;2023-01-23T10:25:36;4.90;99.90
35111;DHT22;21290;50.158;8.658;2023-01-23T10:28:15;4.90;99.90
35111;DHT22;21290;50.158;8.658;2023-01-23T10:30:42;5.00;99.90
35111;DHT22;21290;50.158;8.658;2023-01-23T10:33:12;5.00;99.90
35111;DHT22;21290;50.158;8.658;2023-01-23T10:40:35;5.00;99.90
35111;DHT22;21290;50.158;8.658;2023-01-23T10:43:20;5.00;99.90
35111;DHT22;21290;50.158;8.658;2023-01-23T10:45:48;5.10;99.90
35111;DHT22;21290;50.158;8.658;2023-01-23T10:50:53;5.20;99.90
35111;DHT22;21290;50.158;8.658;2023-01-23T10:53:20;5.20;99.90
35111;DHT22;21290;50.158;8.658;2023-01-23T10:55:47;5.20;99.90
35111;DHT22;21290;50.158;8.658;2023-01-23T10:58:31;5.30;99.90
35111;DHT22;21290;50.158;8.658;2023-01-23T11:00:59;5.20;99.90
35111;DHT22;21290;50.158;8.658;2023-01-23T11:03:28;5.30;99.90
35111;DHT22;21290;50.158;8.658;2023-01-23T11:10:48;5.60;99.90
35111;DHT22;21290;50.158;8.658;2023-01-23T11:13:24;5.60;99.90
35111;DHT22;21290;50.158;8.658;2023-01-23T11:15:51;5.80;99.90
35111;DHT22;21290;50.158;8.658;2023-01-23T11:18:52;5.90;99.90
35111;DHT22;21290;50.158;8.658;2023-01-23T11:21:25;6.10;99.90
35111;DHT22;21290;50.158;8.658;2023-01-23T11:24:06;6.40;99.90
35111;DHT22;21290;50.158;8.658;2023-01-23T11:26:34;7.10;99.90
35111;DHT22;21290;50.158;8.658;2023-01-23T11:29:01;8.00;99.90
35111;DHT22;21290;50.158;8.658;2023-01-23T11:31:28;8.70;99.90
35111;DHT22;21290;50.158;8.658;2023-01-23T11:34:10;9.40;99.90
35111;DHT22;21290;50.158;8.658;2023-01-23T11:41:49;16.80;88.50
35111;DHT22;21290;50.158;8.658;2023-01-23T11:44:19;18.20;80.60
35111;DHT22;21290;50.158;8.658;2023-01-23T11:46:52;19.40;72.30
35111;DHT22;21290;50.158;8.658;2023-01-23T11:49:28;20.80;67.70
35111;DHT22;21290;50.158;8.658;2023-01-23T11:54:38;21.60;60.80
35111;DHT22;21290;50.158;8.658;2023-01-23T11:57:14;20.90;60.10
35111;DHT22;21290;50.158;8.658;2023-01-23T11:59:53;19.90;60.20
35111;DHT22;21290;50.158;8.658;2023-01-23T12:02:31;20.30;61.10
35111;DHT22;21290;50.158;8.658;2023-01-23T12:05:30;20.40;60.40
35111;DHT22;21290;50.158;8.658;2023-01-23T12:13:12;19.50;60.50
35111;DHT22;21290;50.158;8.658;2023-01-23T12:15:50;18.30;61.60
35111;DHT22;21290;50.158;8.658;2023-01-23T12:18:32;16.80;63.80
35111;DHT22;21290;50.158;8.658;2023-01-23T12:24:05;13.90;72.70
35111;DHT22;21290;50.158;8.658;2023-01-23T12:26:35;12.80;77.60
35111;DHT22;21290;50.158;8.658;2023-01-23T12:29:28;12.20;80.00
35111;DHT22;21290;50.158;8.658;2023-01-23T12:32:13;11.80;83.00
35111;DHT22;21290;50.158;8.658;2023-01-23T12:34:55;11.30;87.30
35111;DHT22;21290;50.158;8.658;2023-01-23T12:37:32;11.00;90.00
35111;DHT22;21290;50.158;8.658;2023-01-23T12:42:39;10.50;92.20
35111;DHT22;21290;50.158;8.658;2023-01-23T12:45:12;10.40;94.00
35111;DHT22;21290;50.158;8.658;2023-01-23T12:50:18;10.20;95.40
35111;DHT22;21290;50.158;8.658;2023-01-23T12:52:46;10.00;96.80
35111;DHT22;21290;50.158;8.658;2023-01-23T12:57:47;9.80;98.50
35111;DHT22;21290;50.158;8.658;2023-01-23T13:00:48;9.70;98.60
35111;DHT22;21290;50.158;8.658;2023-01-23T13:08:54;9.30;99.90
35111;DHT22;21290;50.158;8.658;2023-01-23T13:17:27;9.10;99.90
35111;DHT22;21290;50.158;8.658;2023-01-23T13:20:59;9.00;99.90
35111;DHT22;21290;50.158;8.658;2023-01-23T13:25:45;8.90;99.90
35111;DHT22;21290;50.158;8.658;2023-01-23T13:28:34;8.90;99.90
35111;DHT22;21290;50.158;8.658;2023-01-23T13:33:53;8.60;99.90
35111;DHT22;21290;50.158;8.658;2023-01-23T13:36:27;8.70;99.90
35111;DHT22;21290;50.158;8.658;2023-01-23T13:39:02;8.60;99.90
35111;DHT22;21290;50.158;8.658;2023-01-23T13:41:30;8.60;99.90
35111;DHT22;21290;50.158;8.658;2023-01-23T13:50:34;8.40;99.90
35111;DHT22;21290;50.158;8.658;2023-01-23T13:53:21;8.30;99.90
35111;DHT22;21290;50.158;8.658;2023-01-23T13:56:22;8.20;99.90
35111;DHT22;21290;50.158;8.658;2023-01-23T13:59:28;8.10;99.90
35111;DHT22;21290;50.158;8.658;2023-01-23T14:02:33;8.20;99.90
35111;DHT22;21290;50.158;8.658;2023-01-23T14:05:31;8.10;99.90
35111;DHT22;21290;50.158;8.658;2023-01-23T14:08:17;8.00;99.90
35111;DHT22;21290;50.158;8.658;2023-01-23T14:10:58;7.90;99.90
35111;DHT22;21290;50.158;8.658;2023-01-23T14:13:38;7.90;99.90
35111;DHT22;21290;50.158;8.658;2023-01-23T14:16:26;7.80;99.90
35111;DHT22;21290;50.158;8.658;2023-01-23T14:19:18;7.80;99.90
35111;DHT22;21290;50.158;8.658;2023-01-23T14:22:03;7.70;99.90
35111;DHT22;21290;50.158;8.658;2023-01-23T14:24:45;7.50;99.90
35111;DHT22;21290;50.158;8.658;2023-01-23T14:27:19;7.30;99.90
35111;DHT22;21290;50.158;8.658;2023-01-23T14:29:54;7.20;99.90
35111;DHT22;21290;50.158;8.658;2023-01-23T14:32:22;7.10;99.90
35111;DHT22;21290;50.158;8.658;2023-01-23T14:34:49;6.90;99.90
35111;DHT22;21290;50.158;8.658;2023-01-23T14:37:15;6.80;99.90
35111;DHT22;21290;50.158;8.658;2023-01-23T14:39:43;6.70;99.90
35111;DHT22;21290;50.158;8.658;2023-01-23T14:42:25;6.60;99.90
35111;DHT22;21290;50.158;8.658;2023-01-23T14:44:53;6.40;99.90
35111;DHT22;21290;50.158;8.658;2023-01-23T14:49:47;6.20;99.90
35111;DHT22;21290;50.158;8.658;2023-01-23T14:52:21;6.10;99.90
35111;DHT22;21290;50.158;8.658;2023-01-23T14:54:47;6.00;99.90
35111;DHT22;21290;50.158;8.658;2023-01-23T14:57:23;5.90;99.90
35111;DHT22;21290;50.158;8.658;2023-01-23T14:59:52;5.90;99.90
35111;DHT22;21290;50.158;8.658;2023-01-23T15:13:04;5.30;99.90
35111;DHT22;21290;50.158;8.658;2023-01-23T15:15:32;5.20;99.90
35111;DHT22;21290;50.158;8.658;2023-01-23T15:17:59;5.10;99.90
35111;DHT22;21290;50.158;8.658;2023-01-23T15:22:53;4.80;99.90
35111;DHT22;21290;50.158;8.658;2023-01-23T15:25:25;4.70;99.90
35111;DHT22;21290;50.158;8.658;2023-01-23T15:27:51;4.60;99.90
35111;DHT22;21290;50.158;8.658;2023-01-23T15:32:56;4.40;99.90
35111;DHT22;21290;50.158;8.658;2023-01-23T15:35:23;4.30;99.90
35111;DHT22;21290;50.158;8.658;2023-01-23T15:37:50;4.20;99.90
35111;DHT22;21290;50.158;8.658;2023-01-23T15:40:25;4.10;99.90
35111;DHT22;21290;50.158;8.658;2023-01-23T15:45:29;3.90;99.90
35111;DHT22;21290;50.158;8.658;2023-01-23T15:47:55;3.80;99.90
35111;DHT22;21290;50.158;8.658;2023-01-23T15:50:22;3.70;99.90
35111;DHT22;21290;50.158;8.658;2023-01-23T15:52:49;3.70;99.90
35111;DHT22;21290;50.158;8.658;2023-01-23T15:55:17;3.60;99.90
35111;DHT22;21290;50.158;8.658;2023-01-23T15:57:45;3.50;99.90
35111;DHT22;21290;50.158;8.658;2023-01-23T16:00:12;3.40;99.90
35111;DHT22;21290;50.158;8.658;2023-01-23T16:02:39;3.30;99.90
35111;DHT22;21290;50.158;8.658;2023-01-23T16:05:23;3.20;99.90
35111;DHT22;21290;50.158;8.658;2023-01-23T16:07:50;3.10;99.90
35111;DHT22;21290;50.158;8.658;2023-01-23T16:10:19;3.10;99.90
35111;DHT22;21290;50.158;8.658;2023-01-23T16:12:47;3.00;99.90
35111;DHT22;21290;50.158;8.658;2023-01-23T16:15:15;3.00;99.90
35111;DHT22;21290;50.158;8.658;2023-01-23T16:17:43;2.90;99.90
35111;DHT22;21290;50.158;8.658;2023-01-23T16:20:12;2.90;99.90
35111;DHT22;21290;50.158;8.658;2023-01-23T16:22:38;2.80;99.90
35111;DHT22;21290;50.158;8.658;2023-01-23T16:25:05;2.80;99.90
35111;DHT22;21290;50.158;8.658;2023-01-23T16:27:32;2.70;99.90
35111;DHT22;21290;50.158;8.658;2023-01-23T16:29:59;2.70;99.90
35111;DHT22;21290;50.158;8.658;2023-01-23T16:32:25;2.60;99.90
35111;DHT22;21290;50.158;8.658;2023-01-23T16:34:52;2.60;99.90
35111;DHT22;21290;50.158;8.658;2023-01-23T16:37:19;2.50;99.90
35111;DHT22;21290;50.158;8.658;2023-01-23T16:39:46;2.40;99.90
35111;DHT22;21290;50.158;8.658;2023-01-23T16:42:14;2.40;99.90
35111;DHT22;21290;50.158;8.658;2023-01-23T16:44:42;2.30;99.90
35111;DHT22;21290;50.158;8.658;2023-01-23T16:47:08;2.30;99.90
35111;DHT22;21290;50.158;8.658;2023-01-23T16:49:35;2.20;99.90
35111;DHT22;21290;50.158;8.658;2023-01-23T16:52:17;2.20;99.90
35111;DHT22;21290;50.158;8.658;2023-01-23T16:54:44;2.20;99.90
35111;DHT22;21290;50.158;8.658;2023-01-23T16:57:15;2.10;99.90
35111;DHT22;21290;50.158;8.658;2023-01-23T16:59:43;2.10;99.90
35111;DHT22;21290;50.158;8.658;2023-01-23T17:02:14;2.10;99.90
35111;DHT22;21290;50.158;8.658;2023-01-23T17:04:42;2.10;99.90
35111;DHT22;21290;50.158;8.658;2023-01-23T17:07:11;2.10;99.90
35111;DHT22;21290;50.158;8.658;2023-01-23T17:09:39;2.10;99.90
35111;DHT22;21290;50.158;8.658;2023-01-23T17:12:05;2.10;99.90
35111;DHT22;21290;50.158;8.658;2023-01-23T17:14:34;2.10;99.90
35111;DHT22;21290;50.158;8.658;2023-01-23T17:17:02;2.10;99.90
35111;DHT22;21290;50.158;8.658;2023-01-23T17:19:32;2.10;99.90
35111;DHT22;21290;50.158;8.658;2023-01-23T17:22:00;2.00;99.90
35111;DHT22;21290;50.158;8.658;2023-01-23T17:24:27;2.10;99.90
35111;DHT22;21290;50.158;8.658;2023-01-23T17:26:54;2.10;99.90
35111;DHT22;21290;50.158;8.658;2023-01-23T17:29:21;2.10;99.90
35111;DHT22;21290;50.158;8.658;2023-01-23T17:31:48;2.10;99.90
35111;DHT22;21290;50.158;8.658;2023-01-23T17:34:19;2.10;99.90
35111;DHT22;21290;50.158;8.658;2023-01-23T17:36:46;2.10;99.90
35111;DHT22;21290;50.158;8.658;2023-01-23T17:39:13;2.20;99.90